sensor_id;sensor_type;location;lat;lon;timestamp;temperature;humidity
42097;DHT22;27754;45.414;11.084;2022-10-16T00:01:25;16.30;83.20
42097;DHT22;27754;45.414;11.084;2022-10-16T00:03:52;16.30;83.30
42097;DHT22;27754;45.414;11.084;2022-10-16T00:06:20;16.30;83.30
42097;DHT22;27754;45.414;11.084;2022-10-16T00:08:49;16.30;83.10
42097;DHT22;27754;45.414;11.084;2022-10-16T00:11:22;16.30;83.30
42097;DHT22;27754;45.414;11.084;2022-10-16T00:13:51;16.30;83.50
42097;DHT22;27754;45.414;11.084;2022-10-16T00:16:19;16.20;83.50
42097;DHT22;27754;45.414;11.084;2022-10-16T00:18:46;16.20;83.50
42097;DHT22;27754;45.414;11.084;2022-10-16T00:21:16;16.20;83.70
42097;DHT22;27754;45.414;11.084;2022-10-16T00:23:44;16.10;83.70
42097;DHT22;27754;45.414;11.084;2022-10-16T00:26:13;16.10;83.90
42097;DHT22;27754;45.414;11.084;2022-10-16T00:28:41;16.10;84.10
42097;DHT22;27754;45.414;11.084;2022-10-16T00:31:12;16.10;84.30
42097;DHT22;27754;45.414;11.084;2022-10-16T00:33:39;16.10;84.60
42097;DHT22;27754;45.414;11.084;2022-10-16T00:36:09;16.10;84.70
42097;DHT22;27754;45.414;11.084;2022-10-16T00:38:36;16.00;85.00
42097;DHT22;27754;45.414;11.084;2022-10-16T00:41:09;16.00;85.10
42097;DHT22;27754;45.414;11.084;2022-10-16T00:49:05;16.00;85.10
42097;DHT22;27754;45.414;11.084;2022-10-16T00:51:39;15.90;84.90
42097;DHT22;27754;45.414;11.084;2022-10-16T00:54:13;15.90;85.00
42097;DHT22;27754;45.414;11.084;2022-10-16T00:56:41;15.80;85.20
42097;DHT22;27754;45.414;11.084;2022-10-16T00:59:37;15.80;85.20
42097;DHT22;27754;45.414;11.084;2022-10-16T01:02:03;15.80;85.50
42097;DHT22;27754;45.414;11.084;2022-10-16T01:04:40;15.70;85.50
42097;DHT22;27754;45.414;11.084;2022-10-16T01:13:07;15.60;85.70
42097;DHT22;27754;45.414;11.084;2022-10-16T01:15:55;15.60;85.60
42097;DHT22;27754;45.414;11.084;2022-10-16T01:18:43;15.60;85.80
42097;DHT22;27754;45.414;11.084;2022-10-16T01:21:24;15.50;86.20
42097;DHT22;27754;45.414;11.084;2022-10-16T01:27:14;15.40;86.40
42097;DHT22;27754;45.414;11.084;2022-10-16T01:37:43;15.50;86.30
42097;DHT22;27754;45.414;11.084;2022-10-16T01:40:16;15.40;86.30
42097;DHT22;27754;45.414;11.084;2022-10-16T01:42:59;15.50;86.50
42097;DHT22;27754;45.414;11.084;2022-10-16T01:45:28;15.50;86.50
42097;DHT22;27754;45.414;11.084;2022-10-16T01:47:58;15.40;86.60
42097;DHT22;27754;45.414;11.084;2022-10-16T01:50:26;15.30;86.60
42097;DHT22;27754;45.414;11.084;2022-10-16T01:52:56;15.20;86.90
42097;DHT22;27754;45.414;11.084;2022-10-16T01:55:37;15.20;87.10
42097;DHT22;27754;45.414;11.084;2022-10-16T01:58:07;15.10;87.10
42097;DHT22;27754;45.414;11.084;2022-10-16T02:00:38;15.10;87.30
42097;DHT22;27754;45.414;11.084;2022-10-16T02:03:07;15.20;87.20
42097;DHT22;27754;45.414;11.084;2022-10-16T02:05:46;15.10;87.10
42097;DHT22;27754;45.414;11.084;2022-10-16T02:08:13;15.10;87.40
42097;DHT22;27754;45.414;11.084;2022-10-16T02:10:41;15.10;87.50
42097;DHT22;27754;45.414;11.084;2022-10-16T02:13:36;15.10;87.40
42097;DHT22;27754;45.414;11.084;2022-10-16T02:16:04;15.30;87.10
42097;DHT22;27754;45.414;11.084;2022-10-16T02:18:32;15.30;86.70
42097;DHT22;27754;45.414;11.084;2022-10-16T02:21:18;15.30;86.70
42097;DHT22;27754;45.414;11.084;2022-10-16T02:26:52;15.20;87.00
42097;DHT22;27754;45.414;11.084;2022-10-16T02:29:23;15.10;86.80
42097;DHT22;27754;45.414;11.084;2022-10-16T02:31:55;15.00;86.70
42097;DHT22;27754;45.414;11.084;2022-10-16T02:34:25;15.00;87.00
42097;DHT22;27754;45.414;11.084;2022-10-16T02:36:53;15.00;87.60
42097;DHT22;27754;45.414;11.084;2022-10-16T02:39:21;15.10;87.80
42097;DHT22;27754;45.414;11.084;2022-10-16T02:41:48;15.10;87.60
42097;DHT22;27754;45.414;11.084;2022-10-16T02:44:15;15.10;87.50
42097;DHT22;27754;45.414;11.084;2022-10-16T02:46:42;15.10;87.40
42097;DHT22;27754;45.414;11.084;2022-10-16T02:49:09;15.20;87.20
42097;DHT22;27754;45.414;11.084;2022-10-16T02:51:36;15.20;87.20
42097;DHT22;27754;45.414;11.084;2022-10-16T02:54:04;15.20;87.00
42097;DHT22;27754;45.414;11.084;2022-10-16T02:56:31;15.30;87.00
42097;DHT22;27754;45.414;11.084;2022-10-16T02:58:58;15.30;86.80
42097;DHT22;27754;45.414;11.084;2022-10-16T03:01:25;15.30;86.70
42097;DHT22;27754;45.414;11.084;2022-10-16T03:03:52;15.30;86.70
42097;DHT22;27754;45.414;11.084;2022-10-16T03:06:18;15.30;86.70
42097;DHT22;27754;45.414;11.084;2022-10-16T03:08:45;15.30;86.70
42097;DHT22;27754;45.414;11.084;2022-10-16T03:11:12;15.30;86.70
42097;DHT22;27754;45.414;11.084;2022-10-16T03:13:39;15.20;86.20
42097;DHT22;27754;45.414;11.084;2022-10-16T03:16:06;15.00;86.50
42097;DHT22;27754;45.414;11.084;2022-10-16T03:18:33;15.00;86.90
42097;DHT22;27754;45.414;11.084;2022-10-16T03:21:00;14.90;87.70
42097;DHT22;27754;45.414;11.084;2022-10-16T03:23:27;14.90;87.60
42097;DHT22;27754;45.414;11.084;2022-10-16T03:25:59;14.90;87.80
42097;DHT22;27754;45.414;11.084;2022-10-16T03:28:26;14.90;88.00
42097;DHT22;27754;45.414;11.084;2022-10-16T03:30:53;14.80;88.10
42097;DHT22;27754;45.414;11.084;2022-10-16T03:33:20;14.80;88.40
42097;DHT22;27754;45.414;11.084;2022-10-16T03:35:54;14.90;88.20
42097;DHT22;27754;45.414;11.084;2022-10-16T03:38:21;14.90;88.30
42097;DHT22;27754;45.414;11.084;2022-10-16T03:40:48;14.90;88.20
42097;DHT22;27754;45.414;11.084;2022-10-16T03:43:15;14.90;88.10
42097;DHT22;27754;45.414;11.084;2022-10-16T03:45:42;14.90;87.90
42097;DHT22;27754;45.414;11.084;2022-10-16T03:48:09;14.90;87.90
42097;DHT22;27754;45.414;11.084;2022-10-16T03:50:36;14.80;87.80
42097;DHT22;27754;45.414;11.084;2022-10-16T03:53:03;14.80;88.10
42097;DHT22;27754;45.414;11.084;2022-10-16T03:55:30;14.80;88.10
42097;DHT22;27754;45.414;11.084;2022-10-16T03:57:57;14.80;88.10
42097;DHT22;27754;45.414;11.084;2022-10-16T04:00:24;14.80;88.10
42097;DHT22;27754;45.414;11.084;2022-10-16T04:02:51;14.70;88.10
42097;DHT22;27754;45.414;11.084;2022-10-16T04:05:18;14.60;88.30
42097;DHT22;27754;45.414;11.084;2022-10-16T04:07:45;14.70;88.50
42097;DHT22;27754;45.414;11.084;2022-10-16T04:10:11;14.60;88.60
42097;DHT22;27754;45.414;11.084;2022-10-16T04:12:38;14.60;88.70
42097;DHT22;27754;45.414;11.084;2022-10-16T04:15:06;14.60;88.70
42097;DHT22;27754;45.414;11.084;2022-10-16T04:17:33;14.60;88.60
42097;DHT22;27754;45.414;11.084;2022-10-16T04:20:00;14.60;88.80
42097;DHT22;27754;45.414;11.084;2022-10-16T04:22:27;14.60;88.40
42097;DHT22;27754;45.414;11.084;2022-10-16T04:24:58;14.50;88.30
42097;DHT22;27754;45.414;11.084;2022-10-16T04:27:25;14.50;88.30
42097;DHT22;27754;45.414;11.084;2022-10-16T04:29:53;14.50;88.40
42097;DHT22;27754;45.414;11.084;2022-10-16T04:32:20;14.40;88.60
42097;DHT22;27754;45.414;11.084;2022-10-16T04:34:46;14.50;88.50
42097;DHT22;27754;45.414;11.084;2022-10-16T04:37:13;14.40;88.30
42097;DHT22;27754;45.414;11.084;2022-10-16T04:39:40;14.40;88.50
42097;DHT22;27754;45.414;11.084;2022-10-16T04:42:07;14.30;88.60
42097;DHT22;27754;45.414;11.084;2022-10-16T04:44:34;14.30;88.70
42097;DHT22;27754;45.414;11.084;2022-10-16T04:47:01;14.30;88.80
42097;DHT22;27754;45.414;11.084;2022-10-16T04:49:28;14.30;88.90
42097;DHT22;27754;45.414;11.084;2022-10-16T04:51:55;14.10;89.00
42097;DHT22;27754;45.414;11.084;2022-10-16T04:54:22;14.10;89.20
42097;DHT22;27754;45.414;11.084;2022-10-16T04:56:49;14.10;89.60
42097;DHT22;27754;45.414;11.084;2022-10-16T04:59:19;14.10;89.60
42097;DHT22;27754;45.414;11.084;2022-10-16T05:01:46;14.20;89.60
42097;DHT22;27754;45.414;11.084;2022-10-16T05:04:13;14.40;89.90
42097;DHT22;27754;45.414;11.084;2022-10-16T05:06:42;14.50;89.30
42097;DHT22;27754;45.414;11.084;2022-10-16T05:09:09;14.30;88.10
42097;DHT22;27754;45.414;11.084;2022-10-16T05:11:36;14.20;89.20
42097;DHT22;27754;45.414;11.084;2022-10-16T05:14:03;14.20;89.40
42097;DHT22;27754;45.414;11.084;2022-10-16T05:16:30;14.20;89.50
42097;DHT22;27754;45.414;11.084;2022-10-16T05:18:57;14.20;89.90
42097;DHT22;27754;45.414;11.084;2022-10-16T05:21:44;14.30;90.00
42097;DHT22;27754;45.414;11.084;2022-10-16T05:24:11;14.40;89.90
42097;DHT22;27754;45.414;11.084;2022-10-16T05:26:38;14.40;89.70
42097;DHT22;27754;45.414;11.084;2022-10-16T05:29:05;14.50;89.30
42097;DHT22;27754;45.414;11.084;2022-10-16T05:31:32;14.60;89.30
42097;DHT22;27754;45.414;11.084;2022-10-16T05:33:59;14.70;89.30
42097;DHT22;27754;45.414;11.084;2022-10-16T05:36:26;14.70;89.30
42097;DHT22;27754;45.414;11.084;2022-10-16T05:38:53;14.80;89.10
42097;DHT22;27754;45.414;11.084;2022-10-16T05:41:20;14.80;89.10
42097;DHT22;27754;45.414;11.084;2022-10-16T05:43:48;14.80;89.20
42097;DHT22;27754;45.414;11.084;2022-10-16T05:46:16;14.80;89.00
42097;DHT22;27754;45.414;11.084;2022-10-16T05:48:43;14.80;89.20
42097;DHT22;27754;45.414;11.084;2022-10-16T05:51:12;14.90;89.10
42097;DHT22;27754;45.414;11.084;2022-10-16T05:53:40;14.90;89.00
42097;DHT22;27754;45.414;11.084;2022-10-16T05:56:09;14.90;89.00
42097;DHT22;27754;45.414;11.084;2022-10-16T05:58:37;15.00;88.80
42097;DHT22;27754;45.414;11.084;2022-10-16T06:01:11;15.10;88.70
42097;DHT22;27754;45.414;11.084;2022-10-16T06:03:39;15.20;88.50
42097;DHT22;27754;45.414;11.084;2022-10-16T06:06:15;15.30;88.20
42097;DHT22;27754;45.414;11.084;2022-10-16T06:08:42;15.30;88.00
42097;DHT22;27754;45.414;11.084;2022-10-16T06:11:12;15.40;87.90
42097;DHT22;27754;45.414;11.084;2022-10-16T06:13:39;15.50;87.80
42097;DHT22;27754;45.414;11.084;2022-10-16T06:16:10;15.60;87.50
42097;DHT22;27754;45.414;11.084;2022-10-16T06:18:37;15.60;87.10
42097;DHT22;27754;45.414;11.084;2022-10-16T06:21:19;15.70;86.80
42097;DHT22;27754;45.414;11.084;2022-10-16T06:23:46;15.80;86.50
42097;DHT22;27754;45.414;11.084;2022-10-16T06:26:16;15.80;86.20
42097;DHT22;27754;45.414;11.084;2022-10-16T06:28:43;15.80;86.00
42097;DHT22;27754;45.414;11.084;2022-10-16T06:31:11;15.80;85.50
42097;DHT22;27754;45.414;11.084;2022-10-16T06:33:39;15.90;85.40
42097;DHT22;27754;45.414;11.084;2022-10-16T06:36:14;16.00;85.20
42097;DHT22;27754;45.414;11.084;2022-10-16T06:38:42;16.10;85.00
42097;DHT22;27754;45.414;11.084;2022-10-16T06:41:12;16.10;84.80
42097;DHT22;27754;45.414;11.084;2022-10-16T06:43:39;16.20;84.70
42097;DHT22;27754;45.414;11.084;2022-10-16T06:46:08;16.30;85.00
42097;DHT22;27754;45.414;11.084;2022-10-16T06:48:36;16.30;85.10
42097;DHT22;27754;45.414;11.084;2022-10-16T06:51:14;16.40;85.70
42097;DHT22;27754;45.414;11.084;2022-10-16T06:53:44;16.50;86.00
42097;DHT22;27754;45.414;11.084;2022-10-16T06:56:28;16.50;86.20
42097;DHT22;27754;45.414;11.084;2022-10-16T06:58:58;16.50;86.40
42097;DHT22;27754;45.414;11.084;2022-10-16T07:01:25;16.60;86.60
42097;DHT22;27754;45.414;11.084;2022-10-16T07:03:53;16.70;86.40
42097;DHT22;27754;45.414;11.084;2022-10-16T07:06:22;16.70;86.40
42097;DHT22;27754;45.414;11.084;2022-10-16T07:08:49;16.80;86.40
42097;DHT22;27754;45.414;11.084;2022-10-16T07:11:19;16.80;86.20
42097;DHT22;27754;45.414;11.084;2022-10-16T07:13:47;16.80;86.10
42097;DHT22;27754;45.414;11.084;2022-10-16T07:16:26;16.90;86.10
42097;DHT22;27754;45.414;11.084;2022-10-16T07:18:57;17.00;86.10
42097;DHT22;27754;45.414;11.084;2022-10-16T07:21:32;17.10;86.00
42097;DHT22;27754;45.414;11.084;2022-10-16T07:24:04;17.10;86.00
42097;DHT22;27754;45.414;11.084;2022-10-16T07:26:34;17.20;85.70
42097;DHT22;27754;45.414;11.084;2022-10-16T07:29:01;17.30;85.20
42097;DHT22;27754;45.414;11.084;2022-10-16T07:31:28;17.30;84.30
42097;DHT22;27754;45.414;11.084;2022-10-16T07:33:58;17.30;83.40
42097;DHT22;27754;45.414;11.084;2022-10-16T07:36:25;17.30;83.00
42097;DHT22;27754;45.414;11.084;2022-10-16T07:38:52;17.40;83.40
42097;DHT22;27754;45.414;11.084;2022-10-16T07:41:26;17.40;83.50
42097;DHT22;27754;45.414;11.084;2022-10-16T07:43:55;17.50;83.50
42097;DHT22;27754;45.414;11.084;2022-10-16T07:46:24;17.60;83.30
42097;DHT22;27754;45.414;11.084;2022-10-16T07:48:51;17.80;83.30
42097;DHT22;27754;45.414;11.084;2022-10-16T07:51:19;17.80;82.80
42097;DHT22;27754;45.414;11.084;2022-10-16T07:53:47;17.80;82.40
42097;DHT22;27754;45.414;11.084;2022-10-16T07:56:15;17.80;82.00
42097;DHT22;27754;45.414;11.084;2022-10-16T07:58:43;17.80;81.80
42097;DHT22;27754;45.414;11.084;2022-10-16T08:01:13;17.90;81.80
42097;DHT22;27754;45.414;11.084;2022-10-16T08:03:44;17.90;81.70
42097;DHT22;27754;45.414;11.084;2022-10-16T08:06:11;18.00;82.10
42097;DHT22;27754;45.414;11.084;2022-10-16T08:08:38;18.20;81.90
42097;DHT22;27754;45.414;11.084;2022-10-16T08:11:06;18.20;81.60
42097;DHT22;27754;45.414;11.084;2022-10-16T08:13:33;18.30;81.10
42097;DHT22;27754;45.414;11.084;2022-10-16T08:16:00;18.40;81.10
42097;DHT22;27754;45.414;11.084;2022-10-16T08:18:28;18.50;80.60
42097;DHT22;27754;45.414;11.084;2022-10-16T08:20:57;18.60;79.90
42097;DHT22;27754;45.414;11.084;2022-10-16T08:23:24;18.60;79.60
42097;DHT22;27754;45.414;11.084;2022-10-16T08:25:54;18.70;79.40
42097;DHT22;27754;45.414;11.084;2022-10-16T08:28:22;18.60;78.50
42097;DHT22;27754;45.414;11.084;2022-10-16T08:30:49;18.60;77.90
42097;DHT22;27754;45.414;11.084;2022-10-16T08:33:17;18.40;78.20
42097;DHT22;27754;45.414;11.084;2022-10-16T08:35:53;18.40;78.60
42097;DHT22;27754;45.414;11.084;2022-10-16T08:38:21;18.50;78.50
42097;DHT22;27754;45.414;11.084;2022-10-16T08:40:48;18.70;78.40
42097;DHT22;27754;45.414;11.084;2022-10-16T08:48:51;19.20;77.80
42097;DHT22;27754;45.414;11.084;2022-10-16T08:51:30;19.30;76.40
42097;DHT22;27754;45.414;11.084;2022-10-16T08:54:03;19.40;75.40
42097;DHT22;27754;45.414;11.084;2022-10-16T08:56:31;19.50;75.30
42097;DHT22;27754;45.414;11.084;2022-10-16T08:58:59;19.60;75.50
42097;DHT22;27754;45.414;11.084;2022-10-16T09:01:40;19.80;75.00
42097;DHT22;27754;45.414;11.084;2022-10-16T09:07:15;19.50;74.20
42097;DHT22;27754;45.414;11.084;2022-10-16T09:12:36;19.70;73.40
42097;DHT22;27754;45.414;11.084;2022-10-16T09:15:21;19.90;73.60
42097;DHT22;27754;45.414;11.084;2022-10-16T09:20:28;19.80;73.80
42097;DHT22;27754;45.414;11.084;2022-10-16T09:25:36;20.00;73.30
42097;DHT22;27754;45.414;11.084;2022-10-16T09:28:08;20.10;72.90
42097;DHT22;27754;45.414;11.084;2022-10-16T09:30:35;20.20;72.90
42097;DHT22;27754;45.414;11.084;2022-10-16T09:33:02;20.20;72.70
42097;DHT22;27754;45.414;11.084;2022-10-16T09:35:37;20.20;72.80
42097;DHT22;27754;45.414;11.084;2022-10-16T09:38:05;20.30;72.30
42097;DHT22;27754;45.414;11.084;2022-10-16T09:40:38;20.40;72.90
42097;DHT22;27754;45.414;11.084;2022-10-16T09:43:26;20.60;72.60
42097;DHT22;27754;45.414;11.084;2022-10-16T09:46:28;20.60;72.40
42097;DHT22;27754;45.414;11.084;2022-10-16T09:49:20;20.60;72.80
42097;DHT22;27754;45.414;11.084;2022-10-16T09:51:48;20.60;73.60
42097;DHT22;27754;45.414;11.084;2022-10-16T09:54:20;20.60;74.20
42097;DHT22;27754;45.414;11.084;2022-10-16T09:56:48;20.60;74.70
42097;DHT22;27754;45.414;11.084;2022-10-16T09:59:22;20.60;75.20
42097;DHT22;27754;45.414;11.084;2022-10-16T10:01:54;20.60;75.30
42097;DHT22;27754;45.414;11.084;2022-10-16T10:04:25;20.80;75.80
42097;DHT22;27754;45.414;11.084;2022-10-16T10:06:57;20.90;75.40
42097;DHT22;27754;45.414;11.084;2022-10-16T10:09:26;21.00;75.60
42097;DHT22;27754;45.414;11.084;2022-10-16T10:11:58;20.90;76.10
42097;DHT22;27754;45.414;11.084;2022-10-16T10:19:59;21.20;76.10
42097;DHT22;27754;45.414;11.084;2022-10-16T10:22:42;21.20;74.90
42097;DHT22;27754;45.414;11.084;2022-10-16T10:34:03;21.30;73.80
42097;DHT22;27754;45.414;11.084;2022-10-16T10:36:40;21.40;73.60
42097;DHT22;27754;45.414;11.084;2022-10-16T10:42:36;21.60;73.10
42097;DHT22;27754;45.414;11.084;2022-10-16T10:50:23;21.80;72.20
42097;DHT22;27754;45.414;11.084;2022-10-16T10:52:59;21.70;72.90
42097;DHT22;27754;45.414;11.084;2022-10-16T11:01:18;21.90;72.50
42097;DHT22;27754;45.414;11.084;2022-10-16T11:06:34;21.80;72.60
42097;DHT22;27754;45.414;11.084;2022-10-16T11:09:13;21.90;72.60
42097;DHT22;27754;45.414;11.084;2022-10-16T11:11:52;22.00;72.50
42097;DHT22;27754;45.414;11.084;2022-10-16T11:19:56;22.00;72.70
42097;DHT22;27754;45.414;11.084;2022-10-16T11:25:27;22.00;72.40
42097;DHT22;27754;45.414;11.084;2022-10-16T11:33:27;22.30;70.90
42097;DHT22;27754;45.414;11.084;2022-10-16T11:37:01;22.20;71.40
42097;DHT22;27754;45.414;11.084;2022-10-16T11:39:11;22.20;71.00
42097;DHT22;27754;45.414;11.084;2022-10-16T11:41:44;22.10;70.70
42097;DHT22;27754;45.414;11.084;2022-10-16T11:47:34;22.10;71.00
42097;DHT22;27754;45.414;11.084;2022-10-16T11:55:37;21.90;72.10
42097;DHT22;27754;45.414;11.084;2022-10-16T11:58:20;22.00;71.70
42097;DHT22;27754;45.414;11.084;2022-10-16T12:06:31;22.30;71.40
42097;DHT22;27754;45.414;11.084;2022-10-16T12:09:01;22.40;70.90
42097;DHT22;27754;45.414;11.084;2022-10-16T12:14:07;22.50;69.50
42097;DHT22;27754;45.414;11.084;2022-10-16T12:16:36;22.40;69.70
42097;DHT22;27754;45.414;11.084;2022-10-16T12:19:15;22.50;69.70
42097;DHT22;27754;45.414;11.084;2022-10-16T12:21:43;22.40;70.20
42097;DHT22;27754;45.414;11.084;2022-10-16T12:24:32;22.30;70.50
42097;DHT22;27754;45.414;11.084;2022-10-16T12:27:01;22.40;70.80
42097;DHT22;27754;45.414;11.084;2022-10-16T12:29:44;22.40;70.00
42097;DHT22;27754;45.414;11.084;2022-10-16T12:32:32;22.40;69.80
42097;DHT22;27754;45.414;11.084;2022-10-16T12:35:27;22.40;70.50
42097;DHT22;27754;45.414;11.084;2022-10-16T12:38:03;22.70;70.10
42097;DHT22;27754;45.414;11.084;2022-10-16T12:40:33;22.80;69.70
42097;DHT22;27754;45.414;11.084;2022-10-16T12:43:56;22.80;69.50
42097;DHT22;27754;45.414;11.084;2022-10-16T12:48:40;22.80;69.60
42097;DHT22;27754;45.414;11.084;2022-10-16T12:54:14;22.90;69.30
42097;DHT22;27754;45.414;11.084;2022-10-16T12:57:04;22.90;68.90
42097;DHT22;27754;45.414;11.084;2022-10-16T13:02:43;22.90;68.40
42097;DHT22;27754;45.414;11.084;2022-10-16T13:22:06;22.60;69.50
42097;DHT22;27754;45.414;11.084;2022-10-16T13:29:54;22.60;68.40
42097;DHT22;27754;45.414;11.084;2022-10-16T13:32:27;22.60;68.00
42097;DHT22;27754;45.414;11.084;2022-10-16T13:34:54;22.80;67.80
42097;DHT22;27754;45.414;11.084;2022-10-16T13:37:23;22.90;67.50
42097;DHT22;27754;45.414;11.084;2022-10-16T13:39:51;22.80;67.60
42097;DHT22;27754;45.414;11.084;2022-10-16T13:42:28;22.90;67.80
42097;DHT22;27754;45.414;11.084;2022-10-16T13:44:56;22.90;67.90
42097;DHT22;27754;45.414;11.084;2022-10-16T13:47:25;23.00;67.70
42097;DHT22;27754;45.414;11.084;2022-10-16T13:52:32;23.10;67.50
42097;DHT22;27754;45.414;11.084;2022-10-16T13:54:59;23.00;67.60
42097;DHT22;27754;45.414;11.084;2022-10-16T13:57:28;23.10;67.80
42097;DHT22;27754;45.414;11.084;2022-10-16T13:59:55;23.10;67.50
42097;DHT22;27754;45.414;11.084;2022-10-16T14:02:36;23.00;67.10
42097;DHT22;27754;45.414;11.084;2022-10-16T14:05:08;22.90;67.00
42097;DHT22;27754;45.414;11.084;2022-10-16T14:07:37;22.90;67.40
42097;DHT22;27754;45.414;11.084;2022-10-16T14:10:31;22.90;67.40
42097;DHT22;27754;45.414;11.084;2022-10-16T14:13:04;22.80;67.50
42097;DHT22;27754;45.414;11.084;2022-10-16T14:15:34;22.70;67.80
42097;DHT22;27754;45.414;11.084;2022-10-16T14:18:02;22.60;68.10
42097;DHT22;27754;45.414;11.084;2022-10-16T14:20:32;22.70;68.20
42097;DHT22;27754;45.414;11.084;2022-10-16T14:23:16;22.70;68.40
42097;DHT22;27754;45.414;11.084;2022-10-16T14:25:45;22.80;68.60
42097;DHT22;27754;45.414;11.084;2022-10-16T14:28:21;22.80;68.50
42097;DHT22;27754;45.414;11.084;2022-10-16T14:33:23;22.80;68.50
42097;DHT22;27754;45.414;11.084;2022-10-16T14:38:29;22.80;68.20
42097;DHT22;27754;45.414;11.084;2022-10-16T14:40:57;22.80;68.10
42097;DHT22;27754;45.414;11.084;2022-10-16T14:43:55;22.60;67.90
42097;DHT22;27754;45.414;11.084;2022-10-16T14:46:30;22.60;67.70
42097;DHT22;27754;45.414;11.084;2022-10-16T14:49:05;22.70;67.90
42097;DHT22;27754;45.414;11.084;2022-10-16T14:51:41;22.60;68.00
42097;DHT22;27754;45.414;11.084;2022-10-16T14:54:09;22.60;68.00
42097;DHT22;27754;45.414;11.084;2022-10-16T14:56:54;22.60;68.50
42097;DHT22;27754;45.414;11.084;2022-10-16T14:59:38;22.60;68.30
42097;DHT22;27754;45.414;11.084;2022-10-16T15:02:27;22.50;68.30
42097;DHT22;27754;45.414;11.084;2022-10-16T15:04:55;22.50;68.10
42097;DHT22;27754;45.414;11.084;2022-10-16T15:07:22;22.50;68.00
42097;DHT22;27754;45.414;11.084;2022-10-16T15:09:50;22.50;68.20
42097;DHT22;27754;45.414;11.084;2022-10-16T15:12:17;22.40;68.20
42097;DHT22;27754;45.414;11.084;2022-10-16T15:14:44;22.40;68.30
42097;DHT22;27754;45.414;11.084;2022-10-16T15:17:11;22.40;68.60
42097;DHT22;27754;45.414;11.084;2022-10-16T15:19:40;22.30;69.00
42097;DHT22;27754;45.414;11.084;2022-10-16T15:22:10;22.30;69.10
42097;DHT22;27754;45.414;11.084;2022-10-16T15:24:37;22.20;69.20
42097;DHT22;27754;45.414;11.084;2022-10-16T15:27:04;22.10;69.40
42097;DHT22;27754;45.414;11.084;2022-10-16T15:29:31;22.10;69.50
42097;DHT22;27754;45.414;11.084;2022-10-16T15:31:58;22.10;69.80
42097;DHT22;27754;45.414;11.084;2022-10-16T15:34:25;22.00;70.10
42097;DHT22;27754;45.414;11.084;2022-10-16T15:36:52;21.90;70.20
42097;DHT22;27754;45.414;11.084;2022-10-16T15:39:19;21.80;70.50
42097;DHT22;27754;45.414;11.084;2022-10-16T15:41:47;21.80;70.70
42097;DHT22;27754;45.414;11.084;2022-10-16T15:44:18;21.70;71.00
42097;DHT22;27754;45.414;11.084;2022-10-16T15:46:45;21.60;71.10
42097;DHT22;27754;45.414;11.084;2022-10-16T15:49:15;21.60;70.90
42097;DHT22;27754;45.414;11.084;2022-10-16T15:51:42;21.50;70.80
42097;DHT22;27754;45.414;11.084;2022-10-16T15:54:09;21.50;71.00
42097;DHT22;27754;45.414;11.084;2022-10-16T15:56:36;21.50;71.20
42097;DHT22;27754;45.414;11.084;2022-10-16T15:59:04;21.40;71.20
42097;DHT22;27754;45.414;11.084;2022-10-16T16:01:33;21.40;71.40
42097;DHT22;27754;45.414;11.084;2022-10-16T16:04:00;21.30;71.40
42097;DHT22;27754;45.414;11.084;2022-10-16T16:06:41;21.30;71.40
42097;DHT22;27754;45.414;11.084;2022-10-16T16:09:12;21.20;71.70
42097;DHT22;27754;45.414;11.084;2022-10-16T16:11:41;21.20;71.70
42097;DHT22;27754;45.414;11.084;2022-10-16T16:14:12;21.10;71.80
42097;DHT22;27754;45.414;11.084;2022-10-16T16:16:39;21.00;72.20
42097;DHT22;27754;45.414;11.084;2022-10-16T16:19:08;20.90;72.70
42097;DHT22;27754;45.414;11.084;2022-10-16T16:21:38;20.80;73.00
42097;DHT22;27754;45.414;11.084;2022-10-16T16:24:05;20.70;73.40
42097;DHT22;27754;45.414;11.084;2022-10-16T16:26:36;20.70;73.70
42097;DHT22;27754;45.414;11.084;2022-10-16T16:29:06;20.60;74.00
42097;DHT22;27754;45.414;11.084;2022-10-16T16:31:34;20.50;74.20
42097;DHT22;27754;45.414;11.084;2022-10-16T16:34:02;20.40;74.50
42097;DHT22;27754;45.414;11.084;2022-10-16T16:36:29;20.30;75.20
42097;DHT22;27754;45.414;11.084;2022-10-16T16:38:57;20.30;75.40
42097;DHT22;27754;45.414;11.084;2022-10-16T16:41:26;20.30;75.60
42097;DHT22;27754;45.414;11.084;2022-10-16T16:43:54;20.30;75.90
42097;DHT22;27754;45.414;11.084;2022-10-16T16:46:22;20.20;75.80
42097;DHT22;27754;45.414;11.084;2022-10-16T16:48:49;20.20;76.00
42097;DHT22;27754;45.414;11.084;2022-10-16T16:51:22;20.10;76.10
42097;DHT22;27754;45.414;11.084;2022-10-16T16:53:50;20.10;76.10
42097;DHT22;27754;45.414;11.084;2022-10-16T16:56:18;20.10;76.40
42097;DHT22;27754;45.414;11.084;2022-10-16T16:58:50;20.00;76.50
42097;DHT22;27754;45.414;11.084;2022-10-16T17:01:17;20.00;76.80
42097;DHT22;27754;45.414;11.084;2022-10-16T17:03:49;20.00;76.90
42097;DHT22;27754;45.414;11.084;2022-10-16T17:06:18;19.90;77.40
42097;DHT22;27754;45.414;11.084;2022-10-16T17:08:47;19.90;77.40
42097;DHT22;27754;45.414;11.084;2022-10-16T17:11:17;19.80;77.40
42097;DHT22;27754;45.414;11.084;2022-10-16T17:13:44;19.80;77.60
42097;DHT22;27754;45.414;11.084;2022-10-16T17:16:11;19.70;77.90
42097;DHT22;27754;45.414;11.084;2022-10-16T17:18:38;19.60;78.10
42097;DHT22;27754;45.414;11.084;2022-10-16T17:21:06;19.60;78.40
42097;DHT22;27754;45.414;11.084;2022-10-16T17:23:35;19.50;78.90
42097;DHT22;27754;45.414;11.084;2022-10-16T17:26:11;19.40;79.30
42097;DHT22;27754;45.414;11.084;2022-10-16T17:28:38;19.40;79.50
42097;DHT22;27754;45.414;11.084;2022-10-16T17:31:11;19.40;79.50
42097;DHT22;27754;45.414;11.084;2022-10-16T17:33:38;19.30;79.50
42097;DHT22;27754;45.414;11.084;2022-10-16T17:36:06;19.30;79.90
42097;DHT22;27754;45.414;11.084;2022-10-16T17:38:34;19.20;80.00
42097;DHT22;27754;45.414;11.084;2022-10-16T17:41:22;19.10;80.30
42097;DHT22;27754;45.414;11.084;2022-10-16T17:43:50;19.00;80.50
42097;DHT22;27754;45.414;11.084;2022-10-16T17:46:19;19.00;80.70
42097;DHT22;27754;45.414;11.084;2022-10-16T17:48:49;18.90;80.70
42097;DHT22;27754;45.414;11.084;2022-10-16T17:51:20;18.90;80.80
42097;DHT22;27754;45.414;11.084;2022-10-16T17:53:49;18.80;80.90
42097;DHT22;27754;45.414;11.084;2022-10-16T17:56:17;18.80;81.00
42097;DHT22;27754;45.414;11.084;2022-10-16T17:58:50;18.70;81.10
42097;DHT22;27754;45.414;11.084;2022-10-16T18:01:23;18.70;81.20